Nearby METAR Reports

 

CYOW - Ottawa Intl, Ontario, Canada
Distance from station: N 33km
Updated: Sun, 26-Jan-2020 12:00pm EST
Light snow, Overcast
Light snow, Overcast
 Wind from SSW
Wind: SSW 15 km/h
Temperature: 0°C
Wind Chill: -4°C
Dew Point: 0°C
Humidity: 100%
Barometer: 29.60 inHg , 1002.4 hPa
Summary: Light Snow
Clouds: Overcast
Visibility: 1.2 km
Cloud details: Overcast 91 m
2020/01/26 17:00 CYOW 261700Z 21008KT 3/4SM R32/5000VP6000FT/D R07/5500VP6000FT/D -SN VV003 00/00 A2960 RMK SN8 SLP028
CYGK - Kingston Arpt, Ontario, Canada
Distance from station: SW 117km
Updated: Sun, 26-Jan-2020 12:43pm EST
Light rain, Mist, Overcast
Light rain, Mist, Overcast
 Wind from SW
Wind: SW 20 km/h, Gust: 33 km/h
Temperature: 1°C
Wind Chill: -4°C
Dew Point: 0°C
Humidity: 93%
Barometer: 29.65 inHg , 1004.1 hPa
Summary: Light rain, Mist
Clouds: Overcast
Visibility: 6 km
Cloud details: Overcast 213 m
2020/01/26 17:43 CYGK 261743Z 23011G18KT 4SM -RA BR OVC007 01/00 A2965 RMK SF8 CIG RAG SLP045
KMSS - Massena, New York, USA
Distance from station: E 62km
Updated: Sun, 26-Jan-2020 11:53am EST
Overcast
Overcast
 Wind from SW
Wind: SW 26 km/h
Temperature: 2°C
Wind Chill: -3°C
Dew Point: -1°C
Humidity: 81%
Barometer: 29.64 inHg , 1003.7 hPa
Clouds: Overcast
Visibility: 16 km
Cloud details: Overcast 366 m
2020/01/26 16:53 KMSS 261653Z AUTO 22014KT 10SM OVC012 02/M01 A2964 RMK AO2 SLP043 T00171006